createdAt,value
2023-05-13T00:02:13.082Z,1.10
2023-05-13T00:07:15.082Z,1.55
2023-05-13T00:12:17.081Z,0.75
2023-05-13T00:17:19.204Z,1.80
2023-05-13T00:22:21.190Z,0.68
2023-05-13T00:27:23.168Z,0.75
2023-05-13T00:32:25.211Z,0.73
2023-05-13T00:37:27.370Z,1.20
2023-05-13T00:42:29.348Z,1.42
2023-05-13T00:47:31.440Z,0.88
2023-05-13T00:52:34.104Z,0.95
2023-05-13T00:57:37.722Z,0.68
2023-05-13T01:08:12.093Z,0.98
2023-05-13T01:13:18.031Z,1.10
2023-05-13T01:18:25.279Z,2.03
2023-05-13T01:23:27.556Z,0.65
2023-05-13T01:28:30.583Z,0.93
2023-05-13T01:33:33.531Z,1.05
2023-05-13T01:38:37.032Z,1.25
2023-05-13T01:43:39.214Z,0.73
2023-05-13T01:48:42.039Z,1.70
2023-05-13T01:53:44.398Z,0.68
2023-05-13T01:58:46.760Z,1.30
2023-05-13T02:03:49.710Z,0.47
2023-05-13T02:08:51.869Z,1.23
2023-05-13T02:13:53.979Z,0.93
2023-05-13T02:18:56.039Z,1.10
2023-05-13T02:24:03.226Z,0.25
2023-05-13T02:29:05.261Z,1.30
2023-05-13T02:34:07.385Z,0.95
2023-05-13T02:39:09.459Z,0.43
2023-05-13T02:44:12.152Z,1.00
2023-05-13T02:49:14.389Z,0.90
2023-05-13T02:54:16.586Z,0.95
2023-05-13T02:59:18.875Z,0.35
2023-05-13T03:04:21.150Z,2.70
2023-05-13T03:09:23.246Z,0.82
2023-05-13T03:14:25.260Z,0.55
2023-05-13T03:19:27.978Z,0.88
2023-05-13T03:24:30.864Z,0.80
2023-05-13T03:29:33.632Z,0.35
2023-05-13T03:34:36.514Z,1.00
2023-05-13T03:44:41.614Z,1.00
2023-05-13T03:49:48.058Z,0.73
2023-05-13T03:54:50.534Z,1.20
2023-05-13T03:59:52.697Z,0.57
2023-05-13T04:04:54.937Z,1.13
2023-05-13T04:09:56.962Z,0.88
2023-05-13T04:14:59.659Z,1.52
2023-05-13T04:20:01.745Z,0.45
2023-05-13T04:25:05.760Z,1.17
2023-05-13T04:30:08.366Z,1.15
2023-05-13T04:35:12.201Z,1.52
2023-05-13T04:40:15.975Z,0.77
2023-05-13T04:45:17.959Z,0.77
2023-05-13T04:50:22.121Z,1.90
2023-05-13T04:55:27.395Z,2.50
2023-05-13T05:00:31.126Z,0.82
2023-05-13T05:05:33.352Z,1.48
2023-05-13T05:10:35.839Z,2.25
2023-05-13T05:15:37.978Z,0.32
2023-05-13T05:20:41.814Z,1.10
2023-05-13T05:25:53.216Z,1.75
2023-05-13T05:31:03.706Z,1.23
2023-05-13T05:36:07.457Z,4.55
2023-05-13T05:41:10.618Z,0.82
2023-05-13T05:46:12.931Z,1.55
2023-05-13T05:51:15.710Z,1.92
2023-05-13T05:56:17.972Z,1.38
2023-05-13T06:01:21.006Z,0.40
2023-05-13T06:06:23.377Z,1.83
2023-05-13T06:11:25.847Z,1.77
2023-05-13T06:16:28.101Z,3.13
2023-05-13T06:21:31.825Z,0.77
2023-05-13T06:31:35.919Z,2.10
2023-05-13T06:36:37.954Z,3.33
2023-05-13T06:41:43.098Z,1.27
2023-05-13T06:46:49.484Z,1.75
2023-05-13T06:51:52.635Z,1.17
2023-05-13T06:56:55.228Z,3.33
2023-05-13T07:01:57.399Z,0.68
2023-05-13T07:06:59.378Z,1.13
2023-05-13T07:12:02.039Z,1.55
2023-05-13T07:17:04.400Z,1.95
2023-05-13T07:22:06.366Z,0.93
2023-05-13T07:27:08.441Z,2.97
2023-05-13T07:32:10.838Z,2.47
2023-05-13T07:37:13.285Z,1.63
2023-05-13T07:42:15.658Z,2.03
2023-05-13T07:47:17.829Z,0.85
2023-05-13T07:52:20.002Z,3.10
2023-05-13T07:57:22.244Z,1.55
2023-05-13T08:02:24.802Z,1.40
2023-05-13T08:07:26.856Z,2.53
2023-05-13T08:12:28.927Z,2.13
2023-05-13T08:17:30.967Z,2.25
2023-05-13T08:22:33.156Z,1.80
2023-05-13T08:27:35.207Z,1.02
2023-05-13T08:32:37.242Z,0.98
2023-05-13T08:37:39.877Z,1.83
2023-05-13T08:42:43.329Z,0.88
2023-05-13T08:47:54.672Z,4.55
2023-05-13T08:52:59.281Z,4.75
2023-05-13T08:58:01.283Z,6.28
2023-05-13T09:03:03.476Z,1.92
2023-05-13T09:08:09.838Z,2.10
2023-05-13T09:13:13.594Z,1.15
2023-05-13T09:18:18.525Z,2.10
2023-05-13T09:23:23.913Z,3.35
2023-05-13T09:28:26.022Z,2.70
2023-05-13T09:33:30.675Z,2.70
2023-05-13T09:38:34.994Z,4.30
2023-05-13T09:43:39.251Z,2.67
2023-05-13T09:48:43.695Z,2.33
2023-05-13T09:53:47.968Z,4.00
2023-05-13T09:58:53.301Z,4.22
2023-05-13T10:03:56.803Z,6.57
2023-05-13T10:09:01.635Z,2.60
2023-05-13T10:14:07.335Z,4.18
2023-05-13T10:19:10.376Z,2.83
2023-05-13T10:24:13.627Z,4.05
2023-05-13T10:29:17.047Z,6.43
2023-05-13T10:34:19.102Z,4.25
2023-05-13T10:39:51.999Z,3.15
2023-05-13T10:44:58.819Z,3.40
2023-05-13T10:50:05.779Z,3.97
2023-05-13T10:55:16.469Z,4.63
2023-05-13T11:00:20.067Z,5.78
2023-05-13T11:10:31.946Z,5.32
2023-05-13T11:15:50.142Z,4.28
2023-05-13T11:20:55.373Z,3.95
2023-05-13T11:26:16.401Z,8.85
2023-05-13T11:31:18.643Z,6.05
2023-05-13T11:36:21.319Z,3.03
2023-05-13T11:41:23.366Z,5.97
2023-05-13T11:46:26.475Z,4.68
2023-05-13T11:51:28.995Z,6.20
2023-05-13T11:56:31.266Z,3.75
2023-05-13T12:01:33.367Z,2.50
2023-05-13T12:06:36.152Z,5.60
2023-05-13T12:11:38.840Z,4.18
2023-05-13T12:16:42.145Z,4.13
2023-05-13T12:21:44.766Z,4.38
2023-05-13T12:26:47.265Z,3.67
2023-05-13T12:32:06.447Z,8.63
2023-05-13T12:37:13.191Z,3.20
2023-05-13T12:42:17.136Z,6.78
2023-05-13T12:47:20.376Z,4.80
2023-05-13T12:52:22.583Z,6.32
2023-05-13T12:57:24.619Z,5.97
2023-05-13T13:02:27.247Z,3.60
2023-05-13T13:07:29.269Z,4.60
2023-05-13T13:12:31.424Z,4.05
2023-05-13T13:17:33.576Z,4.75
2023-05-13T13:22:38.441Z,4.72
2023-05-13T13:27:40.420Z,3.65
2023-05-13T13:32:42.438Z,6.60
2023-05-13T13:37:44.599Z,6.80
2023-05-13T13:42:46.764Z,6.88
2023-05-13T13:47:48.804Z,5.18
2023-05-13T13:52:53.568Z,7.22
2023-05-13T13:57:55.620Z,6.18
2023-05-13T14:02:57.824Z,4.43
2023-05-13T14:07:59.926Z,3.75
2023-05-13T14:13:02.021Z,6.45
2023-05-13T14:18:04.818Z,5.03
2023-05-13T14:23:06.846Z,5.68
2023-05-13T14:28:08.852Z,6.05
2023-05-13T14:33:11.018Z,7.50
2023-05-13T14:38:13.120Z,7.68
2023-05-13T14:43:15.222Z,4.40
2023-05-13T14:48:17.620Z,4.72
2023-05-13T14:53:19.849Z,5.18
2023-05-13T14:58:21.946Z,8.18
2023-05-13T15:03:24.012Z,7.13
2023-05-13T15:08:26.073Z,6.30
2023-05-13T15:13:28.878Z,5.03
2023-05-13T15:18:31.459Z,6.07
2023-05-13T15:23:33.890Z,7.35
2023-05-13T15:28:35.865Z,6.85
2023-05-13T15:33:37.970Z,5.32
2023-05-13T15:38:40.071Z,5.78
2023-05-13T15:43:42.216Z,8.25
2023-05-13T15:48:44.247Z,5.32
2023-05-13T15:53:46.744Z,6.78
2023-05-13T15:58:49.906Z,4.95
2023-05-13T16:03:51.980Z,5.38
2023-05-13T16:08:56.318Z,10.38
2023-05-13T16:13:58.869Z,6.85
2023-05-13T16:19:03.781Z,7.28
2023-05-13T16:24:07.204Z,7.25
2023-05-13T16:29:09.269Z,4.82
2023-05-13T16:34:11.404Z,8.77
2023-05-13T16:39:13.574Z,8.18
2023-05-13T16:44:15.593Z,9.13
2023-05-13T16:49:17.872Z,4.82
2023-05-13T16:54:20.210Z,5.63
2023-05-13T16:59:27.191Z,7.15
2023-05-13T17:04:29.247Z,4.55
2023-05-13T17:09:31.363Z,8.00
2023-05-13T17:14:33.445Z,4.40
2023-05-13T17:19:35.671Z,5.55
2023-05-13T17:24:38.785Z,7.97
2023-05-13T17:29:40.855Z,4.22
2023-05-13T17:34:42.863Z,3.72
2023-05-13T17:39:44.919Z,6.95
2023-05-13T17:44:46.963Z,6.88
2023-05-13T17:49:49.032Z,4.03
2023-05-13T17:54:51.157Z,4.47
2023-05-13T17:59:53.334Z,6.20
2023-05-13T18:09:58.910Z,5.35
2023-05-13T18:15:01.314Z,2.90
2023-05-13T18:20:03.522Z,8.77
2023-05-13T18:25:07.257Z,8.63
2023-05-13T18:30:09.813Z,6.72
2023-05-13T18:35:11.918Z,4.70
2023-05-13T18:40:13.987Z,4.15
2023-05-13T18:45:16.412Z,5.32
2023-05-13T18:50:18.377Z,8.65
2023-05-13T18:55:20.442Z,7.10
2023-05-13T19:00:23.088Z,5.53
2023-05-13T19:05:25.172Z,6.00
2023-05-13T19:10:27.283Z,7.43
2023-05-13T19:15:29.447Z,5.78
2023-05-13T19:20:31.775Z,6.10
2023-05-13T19:25:34.006Z,3.85
2023-05-13T19:30:36.936Z,5.43
2023-05-13T19:35:39.166Z,6.63
2023-05-13T19:40:41.206Z,3.97
2023-05-13T19:45:43.261Z,5.57
2023-05-13T19:50:45.282Z,3.28
2023-05-13T19:55:47.754Z,3.53
2023-05-13T20:00:49.780Z,4.13
2023-05-13T20:05:53.200Z,6.95
2023-05-13T20:10:55.367Z,5.40
2023-05-13T20:15:57.444Z,7.07
2023-05-13T20:20:59.622Z,4.85
2023-05-13T20:26:02.336Z,6.45
2023-05-13T20:31:04.764Z,5.00
2023-05-13T20:36:06.954Z,5.53
2023-05-13T20:41:09.325Z,5.43
2023-05-13T20:46:16.814Z,4.00
2023-05-13T20:51:19.037Z,4.32
2023-05-13T20:56:21.745Z,2.45
2023-05-13T21:01:23.869Z,3.83
2023-05-13T21:06:27.575Z,4.53
2023-05-13T21:11:29.634Z,3.28
2023-05-13T21:16:31.838Z,4.80
2023-05-13T21:21:33.943Z,4.25
2023-05-13T21:26:35.987Z,5.28
2023-05-13T21:31:38.058Z,4.13
2023-05-13T21:36:40.225Z,3.53
2023-05-13T21:41:42.219Z,3.95
2023-05-13T21:46:44.214Z,7.85
2023-05-13T21:51:46.265Z,4.97
2023-05-13T21:56:48.384Z,6.18
2023-05-13T22:01:50.620Z,6.22
2023-05-13T22:06:52.697Z,2.58
2023-05-13T22:11:54.790Z,4.82
2023-05-13T22:17:08.422Z,1.77
2023-05-13T22:22:11.856Z,2.67
2023-05-13T22:27:13.911Z,3.92
2023-05-13T22:32:16.106Z,3.30
2023-05-13T22:37:18.447Z,6.25
2023-05-13T22:42:20.520Z,4.03
2023-05-13T22:47:22.733Z,3.40
2023-05-13T22:52:24.753Z,3.78
2023-05-13T22:57:27.186Z,3.17
2023-05-13T23:02:29.388Z,1.73
2023-05-13T23:07:31.464Z,6.13
2023-05-13T23:12:33.638Z,1.70
2023-05-13T23:17:35.840Z,3.53
2023-05-13T23:22:38.691Z,2.90
2023-05-13T23:27:40.830Z,2.72
2023-05-13T23:32:43.004Z,2.28
2023-05-13T23:37:45.156Z,3.17
2023-05-13T23:42:47.145Z,1.17
2023-05-13T23:47:50.509Z,5.82
2023-05-13T23:52:52.714Z,3.42
2023-05-13T23:57:55.736Z,3.88
